PWSweather.com
Personal Weather Stations
Station Observations
SUBOTICARS
SuboticaYU

SuboticaYU

Lat: 46.1296717, Lon: 19.641551

Elevation: 361

Station Type: Nexus

http://sumeteo.info

High Low Average
Temperature 34.9°F1.6°C 24.8°F-4.0°C 30.3°F-0.9°C
Dew Point 25.0°F-3.9°C 17.4°F-8.1°C 22.2°F-5.4°C
Winds 11.5 mph 18.5 kmh Calm Calm 5.0 mph SSE8.0 kmh SSE
Wind Gusts 15.0 mph24.1 kmh 1.2 mph1.9 kmh 6.0 mph9.7 kmh
Humidity 79% 64% 72%
Pressure 29.46 in997.6 mb 29.18 in988.1 mb -
Precipitation 0.00 in0.0 mm - -
Hour Temp Dew Point Humidity Winds Wind Gusts Pressure Precip Precip Rate Daily Precip Total
12:00 AM 29.5°F-1.4°C 19.9°F-6.7°C 67% 3.5 mph SW5.6 kmh SW 3.5 mph5.6 kmh 29.46 in997.6 mb - 0.00 in0.0 mm 0.00 in0.0 mm
12:10 AM 29.3°F-1.5°C 20.0°F-6.7°C 68% 3.5 mph S5.6 kmh S 5.8 mph9.3 kmh 29.46 in997.6 mb - 0.00 in0.0 mm 0.00 in0.0 mm
12:15 AM 29.3°F-1.5°C 20.4°F-6.4°C 69% 3.5 mph SSW5.6 kmh SSW 3.5 mph5.6 kmh 29.46 in997.6 mb - 0.00 in0.0 mm 0.00 in0.0 mm
12:20 AM 29.3°F-1.5°C 20.4°F-6.4°C 69% 3.5 mph SSW5.6 kmh SSW 3.5 mph5.6 kmh 29.46 in997.6 mb - 0.00 in0.0 mm 0.00 in0.0 mm
12:25 AM 29.3°F-1.5°C 20.0°F-6.7°C 68% 4.6 mph SSW7.4 kmh SSW 4.6 mph7.4 kmh 29.46 in997.6 mb - 0.00 in0.0 mm 0.00 in0.0 mm
12:30 AM 29.3°F-1.5°C 20.0°F-6.7°C 68% 4.6 mph SSW7.4 kmh SSW 5.8 mph9.3 kmh 29.46 in997.6 mb - 0.00 in0.0 mm 0.00 in0.0 mm
12:35 AM 29.3°F-1.5°C 20.0°F-6.7°C 68% 4.6 mph SSW7.4 kmh SSW 5.8 mph9.3 kmh 29.46 in997.6 mb - 0.00 in0.0 mm 0.00 in0.0 mm
12:40 AM 29.5°F-1.4°C 20.2°F-6.6°C 68% 4.6 mph SSW7.4 kmh SSW 3.5 mph5.6 kmh 29.46 in997.6 mb - 0.00 in0.0 mm 0.00 in0.0 mm
12:45 AM 29.5°F-1.4°C 20.2°F-6.6°C 68% 3.5 mph SW5.6 kmh SW 3.5 mph5.6 kmh 29.45 in997.3 mb - 0.00 in0.0 mm 0.00 in0.0 mm
12:50 AM 29.5°F-1.4°C 20.6°F-6.3°C 69% 3.5 mph SW5.6 kmh SW 3.5 mph5.6 kmh 29.45 in997.3 mb - 0.00 in0.0 mm 0.00 in0.0 mm
12:55 AM 29.3°F-1.5°C 20.4°F-6.4°C 69% 3.5 mph SSW5.6 kmh SSW 3.5 mph5.6 kmh 29.45 in997.3 mb - 0.00 in0.0 mm 0.00 in0.0 mm
01:00 AM 29.3°F-1.5°C 20.4°F-6.4°C 69% 3.5 mph WSW5.6 kmh WSW 4.6 mph7.4 kmh 29.45 in997.3 mb - 0.00 in0.0 mm 0.00 in0.0 mm
01:10 AM 29.3°F-1.5°C 20.7°F-6.3°C 70% 4.6 mph SSW7.4 kmh SSW 5.8 mph9.3 kmh 29.45 in997.3 mb - 0.00 in0.0 mm 0.00 in0.0 mm
01:15 AM 29.3°F-1.5°C 20.7°F-6.3°C 70% 4.6 mph SSW7.4 kmh SSW 4.6 mph7.4 kmh 29.46 in997.6 mb - 0.00 in0.0 mm 0.00 in0.0 mm
01:20 AM 29.3°F-1.5°C 20.7°F-6.3°C 70% 3.5 mph SW5.6 kmh SW 4.6 mph7.4 kmh 29.46 in997.6 mb - 0.00 in0.0 mm 0.00 in0.0 mm
01:25 AM 29.3°F-1.5°C 20.7°F-6.3°C 70% 3.5 mph SW5.6 kmh SW 3.5 mph5.6 kmh 29.46 in997.6 mb - 0.00 in0.0 mm 0.00 in0.0 mm
01:30 AM 29.3°F-1.5°C 20.7°F-6.3°C 70% 3.5 mph SW5.6 kmh SW 3.5 mph5.6 kmh 29.45 in997.3 mb - 0.00 in0.0 mm 0.00 in0.0 mm
01:35 AM 29.3°F-1.5°C 20.7°F-6.3°C 70% 3.5 mph SSW5.6 kmh SSW 3.5 mph5.6 kmh 29.45 in997.3 mb - 0.00 in0.0 mm 0.00 in0.0 mm
01:40 AM 29.3°F-1.5°C 20.7°F-6.3°C 70% 3.5 mph SSW5.6 kmh SSW 3.5 mph5.6 kmh 29.45 in997.3 mb - 0.00 in0.0 mm 0.00 in0.0 mm
01:45 AM 29.3°F-1.5°C 20.7°F-6.3°C 70% 3.5 mph SSW5.6 kmh SSW 3.5 mph5.6 kmh 29.46 in997.6 mb - 0.00 in0.0 mm 0.00 in0.0 mm
01:50 AM 29.3°F-1.5°C 20.7°F-6.3°C 70% 3.5 mph W5.6 kmh W 5.8 mph9.3 kmh 29.46 in997.6 mb - 0.00 in0.0 mm 0.00 in0.0 mm
01:55 AM 29.3°F-1.5°C 20.7°F-6.3°C 70% 3.5 mph SSW5.6 kmh SSW 3.5 mph5.6 kmh 29.46 in997.6 mb - 0.00 in0.0 mm 0.00 in0.0 mm
02:00 AM 29.3°F-1.5°C 21.1°F-6.1°C 71% 3.5 mph SSW5.6 kmh SSW 3.5 mph5.6 kmh 29.45 in997.3 mb - 0.00 in0.0 mm 0.00 in0.0 mm
02:10 AM 29.3°F-1.5°C 21.1°F-6.1°C 71% 4.6 mph SW7.4 kmh SW 5.8 mph9.3 kmh 29.45 in997.3 mb - 0.00 in0.0 mm 0.00 in0.0 mm
02:15 AM 29.3°F-1.5°C 21.1°F-6.1°C 71% 5.8 mph SSW9.3 kmh SSW 5.8 mph9.3 kmh 29.46 in997.6 mb - 0.00 in0.0 mm 0.00 in0.0 mm
02:20 AM 29.1°F-1.6°C 20.9°F-6.2°C 71% 5.8 mph SSW9.3 kmh SSW 8.1 mph13.0 kmh 29.46 in997.6 mb - 0.00 in0.0 mm 0.00 in0.0 mm
02:25 AM 29.1°F-1.6°C 20.9°F-6.2°C 71% 4.6 mph SW7.4 kmh SW 4.6 mph7.4 kmh 29.46 in997.6 mb - 0.00 in0.0 mm 0.00 in0.0 mm
02:30 AM 29.1°F-1.6°C 20.9°F-6.2°C 71% 4.6 mph SSW7.4 kmh SSW 4.6 mph7.4 kmh 29.45 in997.3 mb - 0.00 in0.0 mm 0.00 in0.0 mm
02:35 AM 29.1°F-1.6°C 20.9°F-6.2°C 71% 4.6 mph SW7.4 kmh SW 5.8 mph9.3 kmh 29.45 in997.3 mb - 0.00 in0.0 mm 0.00 in0.0 mm
02:40 AM 29.1°F-1.6°C 20.9°F-6.2°C 71% 3.5 mph SSW5.6 kmh SSW 4.6 mph7.4 kmh 29.45 in997.3 mb - 0.00 in0.0 mm 0.00 in0.0 mm
02:45 AM 29.1°F-1.6°C 20.9°F-6.2°C 71% 4.6 mph SSW7.4 kmh SSW 5.8 mph9.3 kmh 29.44 in997.0 mb - 0.00 in0.0 mm 0.00 in0.0 mm
02:50 AM 29.1°F-1.6°C 20.9°F-6.2°C 71% 4.6 mph SSW7.4 kmh SSW 5.8 mph9.3 kmh 29.44 in997.0 mb - 0.00 in0.0 mm 0.00 in0.0 mm
02:55 AM 29.1°F-1.6°C 20.9°F-6.2°C 71% 3.5 mph SSW5.6 kmh SSW 4.6 mph7.4 kmh 29.44 in997.0 mb - 0.00 in0.0 mm 0.00 in0.0 mm
03:00 AM 29.1°F-1.6°C 20.9°F-6.2°C 71% 4.6 mph SSW7.4 kmh SSW 5.8 mph9.3 kmh 29.44 in997.0 mb - 0.00 in0.0 mm 0.00 in0.0 mm
03:10 AM 29.1°F-1.6°C 21.2°F-6.0°C 72% 3.5 mph SSW5.6 kmh SSW 3.5 mph5.6 kmh 29.44 in997.0 mb - 0.00 in0.0 mm 0.00 in0.0 mm
03:15 AM 29.1°F-1.6°C 21.2°F-6.0°C 72% 4.6 mph SSW7.4 kmh SSW 4.6 mph7.4 kmh 29.43 in996.6 mb - 0.00 in0.0 mm 0.00 in0.0 mm
03:20 AM 29.1°F-1.6°C 21.2°F-6.0°C 72% 5.8 mph SSW9.3 kmh SSW 5.8 mph9.3 kmh 29.43 in996.6 mb - 0.00 in0.0 mm 0.00 in0.0 mm
03:25 AM 29.1°F-1.6°C 21.2°F-6.0°C 72% 4.6 mph SW7.4 kmh SW 5.8 mph9.3 kmh 29.43 in996.6 mb - 0.00 in0.0 mm 0.00 in0.0 mm
03:30 AM 29.1°F-1.6°C 21.2°F-6.0°C 72% 3.5 mph SSW5.6 kmh SSW 4.6 mph7.4 kmh 29.43 in996.6 mb - 0.00 in0.0 mm 0.00 in0.0 mm
03:35 AM 29.1°F-1.6°C 21.2°F-6.0°C 72% 4.6 mph S7.4 kmh S 4.6 mph7.4 kmh 29.43 in996.6 mb - 0.00 in0.0 mm 0.00 in0.0 mm
03:40 AM 29.1°F-1.6°C 21.2°F-6.0°C 72% 3.5 mph WSW5.6 kmh WSW 5.8 mph9.3 kmh 29.43 in996.6 mb - 0.00 in0.0 mm 0.00 in0.0 mm
03:45 AM 29.1°F-1.6°C 21.2°F-6.0°C 72% 4.6 mph S7.4 kmh S 5.8 mph9.3 kmh 29.43 in996.6 mb - 0.00 in0.0 mm 0.00 in0.0 mm
03:50 AM 29.1°F-1.6°C 21.5°F-5.8°C 73% 5.8 mph SSW9.3 kmh SSW 5.8 mph9.3 kmh 29.43 in996.6 mb - 0.00 in0.0 mm 0.00 in0.0 mm
03:55 AM 29.1°F-1.6°C 21.5°F-5.8°C 73% 5.8 mph S9.3 kmh S 8.1 mph13.0 kmh 29.43 in996.6 mb - 0.00 in0.0 mm 0.00 in0.0 mm
04:00 AM 29.1°F-1.6°C 21.5°F-5.8°C 73% 6.9 mph SSW11.1 kmh SSW 5.8 mph9.3 kmh 29.42 in996.3 mb - 0.00 in0.0 mm 0.00 in0.0 mm
04:10 AM 29.1°F-1.6°C 21.5°F-5.8°C 73% 3.5 mph SSW5.6 kmh SSW 3.5 mph5.6 kmh 29.42 in996.3 mb - 0.00 in0.0 mm 0.00 in0.0 mm
04:15 AM 29.1°F-1.6°C 21.5°F-5.8°C 73% 4.6 mph S7.4 kmh S 5.8 mph9.3 kmh 29.41 in995.9 mb - 0.00 in0.0 mm 0.00 in0.0 mm
04:20 AM 29.1°F-1.6°C 21.5°F-5.8°C 73% 3.5 mph SSW5.6 kmh SSW 3.5 mph5.6 kmh 29.41 in995.9 mb - 0.00 in0.0 mm 0.00 in0.0 mm
04:25 AM 29.3°F-1.5°C 21.7°F-5.7°C 73% 3.5 mph S5.6 kmh S 3.5 mph5.6 kmh 29.41 in995.9 mb - 0.00 in0.0 mm 0.00 in0.0 mm
04:30 AM 29.3°F-1.5°C 21.7°F-5.7°C 73% 3.5 mph S5.6 kmh S 5.8 mph9.3 kmh 29.41 in995.9 mb - 0.00 in0.0 mm 0.00 in0.0 mm
04:35 AM 29.1°F-1.6°C 21.9°F-5.6°C 74% 4.6 mph SW7.4 kmh SW 4.6 mph7.4 kmh 29.41 in995.9 mb - 0.00 in0.0 mm 0.00 in0.0 mm
04:40 AM 29.1°F-1.6°C 21.9°F-5.6°C 74% 4.6 mph S7.4 kmh S 5.8 mph9.3 kmh 29.41 in995.9 mb - 0.00 in0.0 mm 0.00 in0.0 mm
04:45 AM 29.1°F-1.6°C 21.9°F-5.6°C 74% 4.6 mph SSW7.4 kmh SSW 8.1 mph13.0 kmh 29.41 in995.9 mb - 0.00 in0.0 mm 0.00 in0.0 mm
04:50 AM 28.9°F-1.7°C 21.7°F-5.7°C 74% 4.6 mph SSW7.4 kmh SSW 6.9 mph11.1 kmh 29.41 in995.9 mb - 0.00 in0.0 mm 0.00 in0.0 mm
04:55 AM 28.9°F-1.7°C 22.0°F-5.6°C 75% 4.6 mph SSW7.4 kmh SSW 6.9 mph11.1 kmh 29.41 in995.9 mb - 0.00 in0.0 mm 0.00 in0.0 mm
05:00 AM 28.9°F-1.7°C 22.0°F-5.6°C 75% 4.6 mph SSW7.4 kmh SSW 5.8 mph9.3 kmh 29.40 in995.6 mb - 0.00 in0.0 mm 0.00 in0.0 mm
05:10 AM 28.8°F-1.8°C 21.8°F-5.7°C 75% 4.6 mph SW7.4 kmh SW 5.8 mph9.3 kmh 29.40 in995.6 mb - 0.00 in0.0 mm 0.00 in0.0 mm
05:15 AM 28.8°F-1.8°C 21.8°F-5.7°C 75% 6.9 mph SSW11.1 kmh SSW 8.1 mph13.0 kmh 29.40 in995.6 mb - 0.00 in0.0 mm 0.00 in0.0 mm
05:20 AM 28.8°F-1.8°C 21.8°F-5.7°C 75% 5.8 mph SSW9.3 kmh SSW 5.8 mph9.3 kmh 29.40 in995.6 mb - 0.00 in0.0 mm 0.00 in0.0 mm
05:25 AM 28.6°F-1.9°C 21.7°F-5.7°C 75% 5.8 mph SSW9.3 kmh SSW 5.8 mph9.3 kmh 29.40 in995.6 mb - 0.00 in0.0 mm 0.00 in0.0 mm
05:30 AM 28.6°F-1.9°C 21.7°F-5.7°C 75% 4.6 mph SSW7.4 kmh SSW 5.8 mph9.3 kmh 29.40 in995.6 mb - 0.00 in0.0 mm 0.00 in0.0 mm
05:35 AM 28.6°F-1.9°C 21.7°F-5.7°C 75% 4.6 mph SW7.4 kmh SW 4.6 mph7.4 kmh 29.40 in995.6 mb - 0.00 in0.0 mm 0.00 in0.0 mm
05:40 AM 28.6°F-1.9°C 21.7°F-5.7°C 75% 5.8 mph SSW9.3 kmh SSW 6.9 mph11.1 kmh 29.40 in995.6 mb - 0.00 in0.0 mm 0.00 in0.0 mm
05:45 AM 28.6°F-1.9°C 21.7°F-5.7°C 75% 4.6 mph SW7.4 kmh SW 5.8 mph9.3 kmh 29.40 in995.6 mb - 0.00 in0.0 mm 0.00 in0.0 mm
05:50 AM 28.4°F-2.0°C 21.5°F-5.8°C 75% 6.9 mph SSW11.1 kmh SSW 9.2 mph14.8 kmh 29.40 in995.6 mb - 0.00 in0.0 mm 0.00 in0.0 mm
05:55 AM 28.4°F-2.0°C 21.5°F-5.8°C 75% 4.6 mph SSW7.4 kmh SSW 5.8 mph9.3 kmh 29.40 in995.6 mb - 0.00 in0.0 mm 0.00 in0.0 mm
06:00 AM 28.4°F-2.0°C 21.5°F-5.8°C 75% 4.6 mph SSW7.4 kmh SSW 5.8 mph9.3 kmh 29.40 in995.6 mb - 0.00 in0.0 mm 0.00 in0.0 mm
06:10 AM 28.2°F-2.1°C 21.3°F-5.9°C 75% 4.6 mph S7.4 kmh S 4.6 mph7.4 kmh 29.40 in995.6 mb - 0.00 in0.0 mm 0.00 in0.0 mm
06:15 AM 28.2°F-2.1°C 21.3°F-5.9°C 75% 3.5 mph SSW5.6 kmh SSW 4.6 mph7.4 kmh 29.40 in995.6 mb - 0.00 in0.0 mm 0.00 in0.0 mm
06:20 AM 28.2°F-2.1°C 21.3°F-5.9°C 75% 3.5 mph SSW5.6 kmh SSW 3.5 mph5.6 kmh 29.40 in995.6 mb - 0.00 in0.0 mm 0.00 in0.0 mm
06:25 AM 28.2°F-2.1°C 21.3°F-5.9°C 75% 3.5 mph SSW5.6 kmh SSW 4.6 mph7.4 kmh 29.40 in995.6 mb - 0.00 in0.0 mm 0.00 in0.0 mm
06:30 AM 28.2°F-2.1°C 21.3°F-5.9°C 75% 3.5 mph SSW5.6 kmh SSW 4.6 mph7.4 kmh 29.40 in995.6 mb - 0.00 in0.0 mm 0.00 in0.0 mm
06:35 AM 28.0°F-2.2°C 21.1°F-6.1°C 75% 3.5 mph SSW5.6 kmh SSW 3.5 mph5.6 kmh 29.40 in995.6 mb - 0.00 in0.0 mm 0.00 in0.0 mm
06:40 AM 28.0°F-2.2°C 20.8°F-6.2°C 74% 3.5 mph SSW5.6 kmh SSW 3.5 mph5.6 kmh 29.40 in995.6 mb - 0.00 in0.0 mm 0.00 in0.0 mm
06:45 AM 27.9°F-2.3°C 20.6°F-6.3°C 74% 4.6 mph SSW7.4 kmh SSW 4.6 mph7.4 kmh 29.40 in995.6 mb - 0.00 in0.0 mm 0.00 in0.0 mm
06:50 AM 27.6°F-2.4°C 20.4°F-6.4°C 74% 3.5 mph SW5.6 kmh SW 4.6 mph7.4 kmh 29.40 in995.6 mb - 0.00 in0.0 mm 0.00 in0.0 mm
06:55 AM 27.3°F-2.6°C 20.1°F-6.6°C 74% 3.5 mph SSW5.6 kmh SSW 5.8 mph9.3 kmh 29.40 in995.6 mb - 0.00 in0.0 mm 0.00 in0.0 mm
07:00 AM 27.1°F-2.7°C 19.9°F-6.7°C 74% 3.5 mph SSW5.6 kmh SSW 3.5 mph5.6 kmh 29.40 in995.6 mb - 0.00 in0.0 mm 0.00 in0.0 mm
07:10 AM 26.4°F-3.1°C 19.3°F-7.1°C 74% 2.3 mph SSE3.7 kmh SSE 3.5 mph5.6 kmh 29.40 in995.6 mb - 0.00 in0.0 mm 0.00 in0.0 mm
07:15 AM 26.1°F-3.3°C 18.6°F-7.4°C 73% 3.5 mph S5.6 kmh S 3.5 mph5.6 kmh 29.40 in995.6 mb - 0.00 in0.0 mm 0.00 in0.0 mm
07:20 AM 26.0°F-3.3°C 18.5°F-7.5°C 73% 2.3 mph SSW3.7 kmh SSW 2.3 mph3.7 kmh 29.40 in995.6 mb - 0.00 in0.0 mm 0.00 in0.0 mm
07:25 AM 25.7°F-3.5°C 18.2°F-7.7°C 73% 2.3 mph S3.7 kmh S 2.3 mph3.7 kmh 29.40 in995.6 mb - 0.00 in0.0 mm 0.00 in0.0 mm
07:30 AM 25.5°F-3.6°C 18.1°F-7.7°C 73% 2.3 mph SSE3.7 kmh SSE 3.5 mph5.6 kmh 29.40 in995.6 mb - 0.00 in0.0 mm 0.00 in0.0 mm
07:35 AM 25.2°F-3.8°C 17.7°F-7.9°C 73% 2.3 mph SSE3.7 kmh SSE 2.3 mph3.7 kmh 29.40 in995.6 mb - 0.00 in0.0 mm 0.00 in0.0 mm
07:40 AM 25.0°F-3.9°C 17.6°F-8.0°C 73% 3.5 mph SE5.6 kmh SE 3.5 mph5.6 kmh 29.40 in995.6 mb - 0.00 in0.0 mm 0.00 in0.0 mm
07:45 AM 24.8°F-4.0°C 17.4°F-8.1°C 73% 3.5 mph SE5.6 kmh SE 3.5 mph5.6 kmh 29.39 in995.3 mb - 0.00 in0.0 mm 0.00 in0.0 mm
07:50 AM 25.0°F-3.9°C 17.5°F-8.1°C 73% 3.5 mph SSE5.6 kmh SSE 3.5 mph5.6 kmh 29.39 in995.3 mb - 0.00 in0.0 mm 0.00 in0.0 mm
07:55 AM 24.8°F-4.0°C 17.4°F-8.1°C 73% 3.5 mph SSE5.6 kmh SSE 4.6 mph7.4 kmh 29.39 in995.3 mb - 0.00 in0.0 mm 0.00 in0.0 mm
08:00 AM 25.0°F-3.9°C 17.5°F-8.1°C 73% 2.3 mph S3.7 kmh S 3.5 mph5.6 kmh 29.39 in995.3 mb - 0.00 in0.0 mm 0.00 in0.0 mm
08:10 AM 25.9°F-3.4°C 18.4°F-7.6°C 73% 4.6 mph SE7.4 kmh SE 5.8 mph9.3 kmh 29.39 in995.3 mb - 0.00 in0.0 mm 0.00 in0.0 mm
08:15 AM 26.2°F-3.2°C 18.7°F-7.4°C 73% 5.8 mph SSE9.3 kmh SSE 6.9 mph11.1 kmh 29.39 in995.3 mb - 0.00 in0.0 mm 0.00 in0.0 mm
08:20 AM 26.6°F-3.0°C 19.1°F-7.2°C 73% 5.8 mph S9.3 kmh S 5.8 mph9.3 kmh 29.39 in995.3 mb - 0.00 in0.0 mm 0.00 in0.0 mm
08:25 AM 26.8°F-2.9°C 19.3°F-7.1°C 73% 4.6 mph SSE7.4 kmh SSE 5.8 mph9.3 kmh 29.39 in995.3 mb - 0.00 in0.0 mm 0.00 in0.0 mm
08:30 AM 27.1°F-2.7°C 19.3°F-7.1°C 72% 4.6 mph ESE7.4 kmh ESE 3.5 mph5.6 kmh 29.38 in994.9 mb - 0.00 in0.0 mm 0.00 in0.0 mm
08:35 AM 27.5°F-2.5°C 19.7°F-6.8°C 72% 4.6 mph SE7.4 kmh SE 5.8 mph9.3 kmh 29.38 in994.9 mb - 0.00 in0.0 mm 0.00 in0.0 mm
08:40 AM 27.9°F-2.3°C 19.7°F-6.8°C 71% 3.5 mph SE5.6 kmh SE 4.6 mph7.4 kmh 29.38 in994.9 mb - 0.00 in0.0 mm 0.00 in0.0 mm
08:45 AM 28.1°F-2.2°C 19.9°F-6.7°C 71% 5.8 mph S9.3 kmh S 5.8 mph9.3 kmh 29.38 in994.9 mb - 0.00 in0.0 mm 0.00 in0.0 mm
08:50 AM 28.5°F-1.9°C 20.2°F-6.6°C 71% 4.6 mph S7.4 kmh S 4.6 mph7.4 kmh 29.38 in994.9 mb - 0.00 in0.0 mm 0.00 in0.0 mm
08:55 AM 28.9°F-1.7°C 20.4°F-6.4°C 70% 3.5 mph SSE5.6 kmh SSE 5.8 mph9.3 kmh 29.38 in994.9 mb - 0.00 in0.0 mm 0.00 in0.0 mm
09:00 AM 29.3°F-1.5°C 20.7°F-6.3°C 70% 5.8 mph SSE9.3 kmh SSE 5.8 mph9.3 kmh 29.39 in995.3 mb - 0.00 in0.0 mm 0.00 in0.0 mm
09:10 AM 30.0°F-1.1°C 21.0°F-6.1°C 69% 6.9 mph S11.1 kmh S 6.9 mph11.1 kmh 29.39 in995.3 mb - 0.00 in0.0 mm 0.00 in0.0 mm
09:15 AM 30.0°F-1.1°C 20.7°F-6.3°C 68% 4.6 mph SSE7.4 kmh SSE 4.6 mph7.4 kmh 29.38 in994.9 mb - 0.00 in0.0 mm 0.00 in0.0 mm
09:20 AM 30.2°F-1.0°C 20.9°F-6.2°C 68% 4.6 mph SE7.4 kmh SE 5.8 mph9.3 kmh 29.38 in994.9 mb - 0.00 in0.0 mm 0.00 in0.0 mm
09:25 AM 30.6°F-0.8°C 20.9°F-6.2°C 67% 4.6 mph SE7.4 kmh SE 4.6 mph7.4 kmh 29.38 in994.9 mb - 0.00 in0.0 mm 0.00 in0.0 mm
09:30 AM 30.7°F-0.7°C 21.1°F-6.1°C 67% 5.8 mph S9.3 kmh S 5.8 mph9.3 kmh 29.37 in994.6 mb - 0.00 in0.0 mm 0.00 in0.0 mm
09:35 AM 30.9°F-0.6°C 21.2°F-6.0°C 67% 8.1 mph SE13.0 kmh SE 8.1 mph13.0 kmh 29.37 in994.6 mb - 0.00 in0.0 mm 0.00 in0.0 mm
09:40 AM 30.9°F-0.6°C 21.2°F-6.0°C 67% 5.8 mph SSE9.3 kmh SSE 9.2 mph14.8 kmh 29.37 in994.6 mb - 0.00 in0.0 mm 0.00 in0.0 mm
09:45 AM 30.7°F-0.7°C 20.7°F-6.3°C 66% 6.9 mph ESE11.1 kmh ESE 8.1 mph13.0 kmh 29.38 in994.9 mb - 0.00 in0.0 mm 0.00 in0.0 mm
09:50 AM 30.7°F-0.7°C 20.7°F-6.3°C 66% 6.9 mph SSE11.1 kmh SSE 6.9 mph11.1 kmh 29.38 in994.9 mb - 0.00 in0.0 mm 0.00 in0.0 mm
09:55 AM 30.7°F-0.7°C 20.7°F-6.3°C 66% 8.1 mph SSE13.0 kmh SSE 8.1 mph13.0 kmh 29.38 in994.9 mb - 0.00 in0.0 mm 0.00 in0.0 mm
10:00 AM 31.6°F-0.2°C 21.6°F-5.8°C 66% 5.8 mph E9.3 kmh E 6.9 mph11.1 kmh 29.37 in994.6 mb - 0.00 in0.0 mm 0.00 in0.0 mm
10:10 AM 31.8°F-0.1°C 21.4°F-5.9°C 65% 10.4 mph SSE16.7 kmh SSE 10.4 mph16.7 kmh 29.37 in994.6 mb - 0.00 in0.0 mm 0.00 in0.0 mm
10:15 AM 31.8°F-0.1°C 21.4°F-5.9°C 65% 8.1 mph SE13.0 kmh SE 10.4 mph16.7 kmh 29.37 in994.6 mb - 0.00 in0.0 mm 0.00 in0.0 mm
10:20 AM 31.8°F-0.1°C 21.4°F-5.9°C 65% 4.6 mph SE7.4 kmh SE 5.8 mph9.3 kmh 29.37 in994.6 mb - 0.00 in0.0 mm 0.00 in0.0 mm
10:25 AM 31.8°F-0.1°C 21.4°F-5.9°C 65% 10.4 mph SE16.7 kmh SE 9.2 mph14.8 kmh 29.37 in994.6 mb - 0.00 in0.0 mm 0.00 in0.0 mm
10:30 AM 31.8°F-0.1°C 21.4°F-5.9°C 65% 9.2 mph SSE14.8 kmh SSE 10.4 mph16.7 kmh 29.37 in994.6 mb - 0.00 in0.0 mm 0.00 in0.0 mm
10:35 AM 31.8°F-0.1°C 21.4°F-5.9°C 65% 6.9 mph SE11.1 kmh SE 5.8 mph9.3 kmh 29.37 in994.6 mb - 0.00 in0.0 mm 0.00 in0.0 mm
10:40 AM 31.8°F-0.1°C 21.4°F-5.9°C 65% 8.1 mph SSE13.0 kmh SSE 10.4 mph16.7 kmh 29.37 in994.6 mb - 0.00 in0.0 mm 0.00 in0.0 mm
10:45 AM 31.8°F-0.1°C 21.4°F-5.9°C 65% 6.9 mph SE11.1 kmh SE 9.2 mph14.8 kmh 29.36 in994.2 mb - 0.00 in0.0 mm 0.00 in0.0 mm
10:50 AM 31.8°F-0.1°C 21.4°F-5.9°C 65% 5.8 mph SE9.3 kmh SE 6.9 mph11.1 kmh 29.36 in994.2 mb - 0.00 in0.0 mm 0.00 in0.0 mm
10:55 AM 31.8°F-0.1°C 21.4°F-5.9°C 65% 5.8 mph SE9.3 kmh SE 5.8 mph9.3 kmh 29.36 in994.2 mb - 0.00 in0.0 mm 0.00 in0.0 mm
11:00 AM 31.8°F-0.1°C 21.4°F-5.9°C 65% 8.1 mph SSE13.0 kmh SSE 8.1 mph13.0 kmh 29.35 in993.9 mb - 0.00 in0.0 mm 0.00 in0.0 mm
11:10 AM 31.8°F-0.1°C 21.4°F-5.9°C 65% 6.9 mph SE11.1 kmh SE 8.1 mph13.0 kmh 29.35 in993.9 mb - 0.00 in0.0 mm 0.00 in0.0 mm
11:15 AM 31.8°F-0.1°C 21.4°F-5.9°C 65% 6.9 mph SE11.1 kmh SE 11.5 mph18.5 kmh 29.34 in993.6 mb - 0.00 in0.0 mm 0.00 in0.0 mm
11:20 AM 31.8°F-0.1°C 21.4°F-5.9°C 65% 6.9 mph SE11.1 kmh SE 9.2 mph14.8 kmh 29.34 in993.6 mb - 0.00 in0.0 mm 0.00 in0.0 mm
11:25 AM 31.8°F-0.1°C 21.4°F-5.9°C 65% 8.1 mph SE13.0 kmh SE 8.1 mph13.0 kmh 29.34 in993.6 mb - 0.00 in0.0 mm 0.00 in0.0 mm
11:30 AM 31.8°F-0.1°C 21.4°F-5.9°C 65% 8.1 mph SE13.0 kmh SE 9.2 mph14.8 kmh 29.34 in993.6 mb - 0.00 in0.0 mm 0.00 in0.0 mm
11:35 AM 31.8°F-0.1°C 21.4°F-5.9°C 65% 5.8 mph ESE9.3 kmh ESE 12.7 mph20.4 kmh 29.34 in993.6 mb - 0.00 in0.0 mm 0.00 in0.0 mm
11:40 AM 31.8°F-0.1°C 21.4°F-5.9°C 65% 8.1 mph S13.0 kmh S 11.5 mph18.5 kmh 29.34 in993.6 mb - 0.00 in0.0 mm 0.00 in0.0 mm
11:45 AM 31.8°F-0.1°C 21.4°F-5.9°C 65% 8.1 mph SSE13.0 kmh SSE 10.4 mph16.7 kmh 29.33 in993.2 mb - 0.00 in0.0 mm 0.00 in0.0 mm
11:50 AM 34.3°F1.3°C 23.4°F-4.8°C 64% 6.9 mph SE11.1 kmh SE 10.4 mph16.7 kmh 29.33 in993.2 mb - 0.00 in0.0 mm 0.00 in0.0 mm
11:55 AM 34.3°F1.3°C 23.4°F-4.8°C 64% 10.4 mph SE16.7 kmh SE 11.5 mph18.5 kmh 29.33 in993.2 mb - 0.00 in0.0 mm 0.00 in0.0 mm
12:00 PM 34.3°F1.3°C 23.4°F-4.8°C 64% 10.4 mph SSE16.7 kmh SSE 10.4 mph16.7 kmh 29.32 in992.9 mb - 0.00 in0.0 mm 0.00 in0.0 mm
12:10 PM 34.3°F1.3°C 23.4°F-4.8°C 64% 9.2 mph SE14.8 kmh SE 11.5 mph18.5 kmh 29.32 in992.9 mb - 0.00 in0.0 mm 0.00 in0.0 mm
12:15 PM 34.3°F1.3°C 23.4°F-4.8°C 64% 10.4 mph SE16.7 kmh SE 8.1 mph13.0 kmh 29.31 in992.6 mb - 0.00 in0.0 mm 0.00 in0.0 mm
12:20 PM 34.3°F1.3°C 23.4°F-4.8°C 64% 10.4 mph SSE16.7 kmh SSE 13.8 mph22.2 kmh 29.31 in992.6 mb - 0.00 in0.0 mm 0.00 in0.0 mm
12:25 PM 34.3°F1.3°C 23.4°F-4.8°C 64% 11.5 mph SE18.5 kmh SE 13.8 mph22.2 kmh 29.31 in992.6 mb - 0.00 in0.0 mm 0.00 in0.0 mm
12:30 PM 34.5°F1.4°C 24.3°F-4.3°C 66% 11.5 mph ESE18.5 kmh ESE 13.8 mph22.2 kmh 29.30 in992.2 mb - 0.00 in0.0 mm 0.00 in0.0 mm
12:35 PM 34.5°F1.4°C 24.3°F-4.3°C 66% 9.2 mph SE14.8 kmh SE 11.5 mph18.5 kmh 29.30 in992.2 mb - 0.00 in0.0 mm 0.00 in0.0 mm
12:40 PM 34.5°F1.4°C 24.3°F-4.3°C 66% 8.1 mph SE13.0 kmh SE 11.5 mph18.5 kmh 29.30 in992.2 mb - 0.00 in0.0 mm 0.00 in0.0 mm
12:45 PM 34.5°F1.4°C 24.3°F-4.3°C 66% 10.4 mph ESE16.7 kmh ESE 12.7 mph20.4 kmh 29.29 in991.9 mb - 0.00 in0.0 mm 0.00 in0.0 mm
12:50 PM 34.5°F1.4°C 24.3°F-4.3°C 66% 6.9 mph SE11.1 kmh SE 10.4 mph16.7 kmh 29.29 in991.9 mb - 0.00 in0.0 mm 0.00 in0.0 mm
12:55 PM 34.5°F1.4°C 24.3°F-4.3°C 66% 10.4 mph SE16.7 kmh SE 11.5 mph18.5 kmh 29.29 in991.9 mb - 0.00 in0.0 mm 0.00 in0.0 mm
01:00 PM 34.5°F1.4°C 24.3°F-4.3°C 66% 10.4 mph ESE16.7 kmh ESE 13.8 mph22.2 kmh 29.29 in991.9 mb - 0.00 in0.0 mm 0.00 in0.0 mm
01:10 PM 34.5°F1.4°C 24.3°F-4.3°C 66% 10.4 mph SSE16.7 kmh SSE 15.0 mph24.1 kmh 29.29 in991.9 mb - 0.00 in0.0 mm 0.00 in0.0 mm
01:15 PM 34.5°F1.4°C 24.3°F-4.3°C 66% 11.5 mph SSE18.5 kmh SSE 12.7 mph20.4 kmh 29.27 in991.2 mb - 0.00 in0.0 mm 0.00 in0.0 mm
01:20 PM 34.5°F1.4°C 24.3°F-4.3°C 66% 8.1 mph SE13.0 kmh SE 9.2 mph14.8 kmh 29.27 in991.2 mb - 0.00 in0.0 mm 0.00 in0.0 mm
01:25 PM 34.5°F1.4°C 24.3°F-4.3°C 66% 10.4 mph SSE16.7 kmh SSE 12.7 mph20.4 kmh 29.27 in991.2 mb - 0.00 in0.0 mm 0.00 in0.0 mm
01:30 PM 34.5°F1.4°C 24.3°F-4.3°C 66% 9.2 mph SE14.8 kmh SE 9.2 mph14.8 kmh 29.27 in991.2 mb - 0.00 in0.0 mm 0.00 in0.0 mm
01:35 PM 34.5°F1.4°C 24.3°F-4.3°C 66% 9.2 mph SE14.8 kmh SE 11.5 mph18.5 kmh 29.27 in991.2 mb - 0.00 in0.0 mm 0.00 in0.0 mm
01:40 PM 34.5°F1.4°C 24.3°F-4.3°C 66% 9.2 mph ESE14.8 kmh ESE 8.1 mph13.0 kmh 29.27 in991.2 mb - 0.00 in0.0 mm 0.00 in0.0 mm
01:45 PM 34.5°F1.4°C 24.3°F-4.3°C 66% 8.1 mph SSE13.0 kmh SSE 8.1 mph13.0 kmh 29.27 in991.2 mb - 0.00 in0.0 mm 0.00 in0.0 mm
01:50 PM 34.9°F1.6°C 24.7°F-4.1°C 66% 8.1 mph SE13.0 kmh SE 9.2 mph14.8 kmh 29.27 in991.2 mb - 0.00 in0.0 mm 0.00 in0.0 mm
01:55 PM 34.9°F1.6°C 24.7°F-4.1°C 66% 8.1 mph SSE13.0 kmh SSE 10.4 mph16.7 kmh 29.27 in991.2 mb - 0.00 in0.0 mm 0.00 in0.0 mm
02:00 PM 34.9°F1.6°C 24.7°F-4.1°C 66% 10.4 mph ESE16.7 kmh ESE 10.4 mph16.7 kmh 29.26 in990.9 mb - 0.00 in0.0 mm 0.00 in0.0 mm
02:10 PM 34.9°F1.6°C 25.0°F-3.9°C 67% 9.2 mph E14.8 kmh E 10.4 mph16.7 kmh 29.26 in990.9 mb - 0.00 in0.0 mm 0.00 in0.0 mm
02:15 PM 34.9°F1.6°C 25.0°F-3.9°C 67% 6.9 mph SE11.1 kmh SE 6.9 mph11.1 kmh 29.26 in990.9 mb - 0.00 in0.0 mm 0.00 in0.0 mm
02:20 PM 34.9°F1.6°C 25.0°F-3.9°C 67% 9.2 mph SE14.8 kmh SE 10.4 mph16.7 kmh 29.26 in990.9 mb - 0.00 in0.0 mm 0.00 in0.0 mm
02:25 PM 34.7°F1.5°C 24.9°F-3.9°C 67% 8.1 mph SE13.0 kmh SE 10.4 mph16.7 kmh 29.26 in990.9 mb - 0.00 in0.0 mm 0.00 in0.0 mm
02:30 PM 34.5°F1.4°C 24.7°F-4.1°C 67% 6.9 mph SE11.1 kmh SE 8.1 mph13.0 kmh 29.26 in990.9 mb - 0.00 in0.0 mm 0.00 in0.0 mm
02:35 PM 34.5°F1.4°C 24.7°F-4.1°C 67% 8.1 mph SE13.0 kmh SE 8.1 mph13.0 kmh 29.26 in990.9 mb - 0.00 in0.0 mm 0.00 in0.0 mm
02:40 PM 34.5°F1.4°C 24.7°F-4.1°C 67% 6.9 mph SE11.1 kmh SE 12.7 mph20.4 kmh 29.26 in990.9 mb - 0.00 in0.0 mm 0.00 in0.0 mm
02:45 PM 34.5°F1.4°C 24.7°F-4.1°C 67% 9.2 mph SE14.8 kmh SE 10.4 mph16.7 kmh 29.26 in990.9 mb - 0.00 in0.0 mm 0.00 in0.0 mm
02:50 PM 34.5°F1.4°C 24.7°F-4.1°C 67% 8.1 mph SE13.0 kmh SE 10.4 mph16.7 kmh 29.26 in990.9 mb - 0.00 in0.0 mm 0.00 in0.0 mm
02:55 PM 34.3°F1.3°C 24.9°F-3.9°C 68% 8.1 mph SE13.0 kmh SE 8.1 mph13.0 kmh 29.26 in990.9 mb - 0.00 in0.0 mm 0.00 in0.0 mm
03:00 PM 34.3°F1.3°C 24.9°F-3.9°C 68% 6.9 mph ESE11.1 kmh ESE 8.1 mph13.0 kmh 29.26 in990.9 mb - 0.00 in0.0 mm 0.00 in0.0 mm
03:10 PM 33.8°F1.0°C 24.4°F-4.2°C 68% 5.8 mph ESE9.3 kmh ESE 6.9 mph11.1 kmh 29.26 in990.9 mb - 0.00 in0.0 mm 0.00 in0.0 mm
03:15 PM 33.8°F1.0°C 24.4°F-4.2°C 68% 8.1 mph ESE13.0 kmh ESE 10.4 mph16.7 kmh 29.26 in990.9 mb - 0.00 in0.0 mm 0.00 in0.0 mm
03:20 PM 33.8°F1.0°C 24.4°F-4.2°C 68% 6.9 mph SE11.1 kmh SE 8.1 mph13.0 kmh 29.26 in990.9 mb - 0.00 in0.0 mm 0.00 in0.0 mm
03:25 PM 33.1°F0.6°C 24.0°F-4.4°C 69% 5.8 mph E9.3 kmh E 5.8 mph9.3 kmh 29.26 in990.9 mb - 0.00 in0.0 mm 0.00 in0.0 mm
03:30 PM 33.1°F0.6°C 24.0°F-4.4°C 69% 4.6 mph E7.4 kmh E 5.8 mph9.3 kmh 29.25 in990.5 mb - 0.00 in0.0 mm 0.00 in0.0 mm
03:35 PM 33.1°F0.6°C 24.0°F-4.4°C 69% 4.6 mph E7.4 kmh E 6.9 mph11.1 kmh 29.25 in990.5 mb - 0.00 in0.0 mm 0.00 in0.0 mm
03:40 PM 32.9°F0.5°C 23.8°F-4.6°C 69% 5.8 mph ESE9.3 kmh ESE 5.8 mph9.3 kmh 29.25 in990.5 mb - 0.00 in0.0 mm 0.00 in0.0 mm
03:45 PM 32.5°F0.3°C 23.5°F-4.7°C 69% 4.6 mph SE7.4 kmh SE 4.6 mph7.4 kmh 29.26 in990.9 mb - 0.00 in0.0 mm 0.00 in0.0 mm
03:50 PM 32.2°F0.1°C 23.5°F-4.7°C 70% 5.8 mph SE9.3 kmh SE 6.9 mph11.1 kmh 29.26 in990.9 mb - 0.00 in0.0 mm 0.00 in0.0 mm
03:55 PM 32.0°F0.0°C 23.3°F-4.8°C 70% 4.6 mph SE7.4 kmh SE 5.8 mph9.3 kmh 29.26 in990.9 mb - 0.00 in0.0 mm 0.00 in0.0 mm
04:00 PM 32.0°F0.0°C 23.3°F-4.8°C 70% 5.8 mph ESE9.3 kmh ESE 8.1 mph13.0 kmh 29.25 in990.5 mb - 0.00 in0.0 mm 0.00 in0.0 mm
04:10 PM 31.8°F-0.1°C 23.5°F-4.7°C 71% 6.9 mph ESE11.1 kmh ESE 8.1 mph13.0 kmh 29.25 in990.5 mb - 0.00 in0.0 mm 0.00 in0.0 mm
04:15 PM 31.6°F-0.2°C 23.3°F-4.8°C 71% 5.8 mph ESE9.3 kmh ESE 5.8 mph9.3 kmh 29.25 in990.5 mb - 0.00 in0.0 mm 0.00 in0.0 mm
04:20 PM 31.6°F-0.2°C 23.3°F-4.8°C 71% 5.8 mph ESE9.3 kmh ESE 5.8 mph9.3 kmh 29.25 in990.5 mb - 0.00 in0.0 mm 0.00 in0.0 mm
04:25 PM 31.6°F-0.2°C 23.3°F-4.8°C 71% 8.1 mph ESE13.0 kmh ESE 8.1 mph13.0 kmh 29.25 in990.5 mb - 0.00 in0.0 mm 0.00 in0.0 mm
04:30 PM 31.6°F-0.2°C 23.3°F-4.8°C 71% 6.9 mph ESE11.1 kmh ESE 10.4 mph16.7 kmh 29.25 in990.5 mb - 0.00 in0.0 mm 0.00 in0.0 mm
04:35 PM 31.4°F-0.3°C 23.4°F-4.8°C 72% 6.9 mph ESE11.1 kmh ESE 6.9 mph11.1 kmh 29.25 in990.5 mb - 0.00 in0.0 mm 0.00 in0.0 mm
04:40 PM 31.2°F-0.4°C 23.2°F-4.9°C 72% 6.9 mph SE11.1 kmh SE 8.1 mph13.0 kmh 29.25 in990.5 mb - 0.00 in0.0 mm 0.00 in0.0 mm
04:45 PM 31.1°F-0.5°C 23.1°F-4.9°C 72% 5.8 mph SE9.3 kmh SE 9.2 mph14.8 kmh 29.24 in990.2 mb - 0.00 in0.0 mm 0.00 in0.0 mm
04:50 PM 31.1°F-0.5°C 23.1°F-4.9°C 72% 6.9 mph SE11.1 kmh SE 6.9 mph11.1 kmh 29.24 in990.2 mb - 0.00 in0.0 mm 0.00 in0.0 mm
04:55 PM 31.1°F-0.5°C 23.1°F-4.9°C 72% 6.9 mph SE11.1 kmh SE 9.2 mph14.8 kmh 29.24 in990.2 mb - 0.00 in0.0 mm 0.00 in0.0 mm
05:00 PM 31.1°F-0.5°C 23.1°F-4.9°C 72% 8.1 mph SE13.0 kmh SE 10.4 mph16.7 kmh 29.24 in990.2 mb - 0.00 in0.0 mm 0.00 in0.0 mm
05:10 PM 31.0°F-0.6°C 23.4°F-4.8°C 73% 6.9 mph ESE11.1 kmh ESE 9.2 mph14.8 kmh 29.24 in990.2 mb - 0.00 in0.0 mm 0.00 in0.0 mm
05:15 PM 30.9°F-0.6°C 23.3°F-4.8°C 73% 6.9 mph SE11.1 kmh SE 6.9 mph11.1 kmh 29.24 in990.2 mb - 0.00 in0.0 mm 0.00 in0.0 mm
05:20 PM 30.9°F-0.6°C 23.3°F-4.8°C 73% 6.9 mph SE11.1 kmh SE 8.1 mph13.0 kmh 29.24 in990.2 mb - 0.00 in0.0 mm 0.00 in0.0 mm
05:25 PM 30.9°F-0.6°C 23.3°F-4.8°C 73% 6.9 mph E11.1 kmh E 8.1 mph13.0 kmh 29.24 in990.2 mb - 0.00 in0.0 mm 0.00 in0.0 mm
05:30 PM 30.7°F-0.7°C 23.1°F-4.9°C 73% 5.8 mph ESE9.3 kmh ESE 8.1 mph13.0 kmh 29.23 in989.8 mb - 0.00 in0.0 mm 0.00 in0.0 mm
05:35 PM 30.7°F-0.7°C 23.1°F-4.9°C 73% 5.8 mph SSE9.3 kmh SSE 5.8 mph9.3 kmh 29.23 in989.8 mb - 0.00 in0.0 mm 0.00 in0.0 mm
05:40 PM 30.7°F-0.7°C 23.1°F-4.9°C 73% 6.9 mph ESE11.1 kmh ESE 8.1 mph13.0 kmh 29.23 in989.8 mb - 0.00 in0.0 mm 0.00 in0.0 mm
05:45 PM 30.6°F-0.8°C 22.9°F-5.1°C 73% 6.9 mph SE11.1 kmh SE 5.8 mph9.3 kmh 29.23 in989.8 mb - 0.00 in0.0 mm 0.00 in0.0 mm
05:50 PM 30.6°F-0.8°C 22.9°F-5.1°C 73% 8.1 mph ESE13.0 kmh ESE 9.2 mph14.8 kmh 29.23 in989.8 mb - 0.00 in0.0 mm 0.00 in0.0 mm
05:55 PM 30.6°F-0.8°C 22.9°F-5.1°C 73% 6.9 mph ESE11.1 kmh ESE 8.1 mph13.0 kmh 29.23 in989.8 mb - 0.00 in0.0 mm 0.00 in0.0 mm
06:00 PM 30.6°F-0.8°C 22.9°F-5.1°C 73% 5.8 mph ESE9.3 kmh ESE 8.1 mph13.0 kmh 29.23 in989.8 mb - 0.00 in0.0 mm 0.00 in0.0 mm
06:10 PM 30.4°F-0.9°C 23.1°F-4.9°C 74% 4.6 mph ESE7.4 kmh ESE 5.8 mph9.3 kmh 29.23 in989.8 mb - 0.00 in0.0 mm 0.00 in0.0 mm
06:15 PM 30.4°F-0.9°C 23.1°F-4.9°C 74% 5.8 mph SE9.3 kmh SE 8.1 mph13.0 kmh 29.23 in989.8 mb - 0.00 in0.0 mm 0.00 in0.0 mm
06:20 PM 30.4°F-0.9°C 23.1°F-4.9°C 74% 4.6 mph SSE7.4 kmh SSE 5.8 mph9.3 kmh 29.23 in989.8 mb - 0.00 in0.0 mm 0.00 in0.0 mm
06:25 PM 30.4°F-0.9°C 23.1°F-4.9°C 74% 4.6 mph SE7.4 kmh SE 4.6 mph7.4 kmh 29.23 in989.8 mb - 0.00 in0.0 mm 0.00 in0.0 mm
06:30 PM 30.4°F-0.9°C 23.1°F-4.9°C 74% 3.5 mph SE5.6 kmh SE 3.5 mph5.6 kmh 29.23 in989.8 mb - 0.00 in0.0 mm 0.00 in0.0 mm
06:35 PM 30.4°F-0.9°C 23.1°F-4.9°C 74% 4.6 mph SE7.4 kmh SE 5.8 mph9.3 kmh 29.23 in989.8 mb - 0.00 in0.0 mm 0.00 in0.0 mm
06:40 PM 30.4°F-0.9°C 23.1°F-4.9°C 74% 3.5 mph SE5.6 kmh SE 3.5 mph5.6 kmh 29.23 in989.8 mb - 0.00 in0.0 mm 0.00 in0.0 mm
06:45 PM 30.4°F-0.9°C 23.1°F-4.9°C 74% 3.5 mph SSE5.6 kmh SSE 3.5 mph5.6 kmh 29.23 in989.8 mb - 0.00 in0.0 mm 0.00 in0.0 mm
06:50 PM 30.4°F-0.9°C 23.1°F-4.9°C 74% 4.6 mph SE7.4 kmh SE 5.8 mph9.3 kmh 29.23 in989.8 mb - 0.00 in0.0 mm 0.00 in0.0 mm
06:55 PM 30.4°F-0.9°C 23.1°F-4.9°C 74% 4.6 mph SE7.4 kmh SE 5.8 mph9.3 kmh 29.23 in989.8 mb - 0.00 in0.0 mm 0.00 in0.0 mm
07:00 PM 30.4°F-0.9°C 23.4°F-4.8°C 75% 4.6 mph SE7.4 kmh SE 5.8 mph9.3 kmh 29.23 in989.8 mb - 0.00 in0.0 mm 0.00 in0.0 mm
07:10 PM 30.4°F-0.9°C 23.4°F-4.8°C 75% 3.5 mph SE5.6 kmh SE 3.5 mph5.6 kmh 29.23 in989.8 mb - 0.00 in0.0 mm 0.00 in0.0 mm
07:15 PM 30.4°F-0.9°C 23.4°F-4.8°C 75% 3.5 mph SSE5.6 kmh SSE 4.6 mph7.4 kmh 29.23 in989.8 mb - 0.00 in0.0 mm 0.00 in0.0 mm
07:20 PM 30.4°F-0.9°C 23.4°F-4.8°C 75% 4.6 mph SE7.4 kmh SE 5.8 mph9.3 kmh 29.23 in989.8 mb - 0.00 in0.0 mm 0.00 in0.0 mm
07:25 PM 30.2°F-1.0°C 23.2°F-4.9°C 75% 3.5 mph SE5.6 kmh SE 4.6 mph7.4 kmh 29.23 in989.8 mb - 0.00 in0.0 mm 0.00 in0.0 mm
07:30 PM 30.2°F-1.0°C 23.2°F-4.9°C 75% 3.5 mph SE5.6 kmh SE 3.5 mph5.6 kmh 29.23 in989.8 mb - 0.00 in0.0 mm 0.00 in0.0 mm
07:35 PM 30.2°F-1.0°C 23.5°F-4.7°C 76% 3.5 mph SE5.6 kmh SE 4.6 mph7.4 kmh 29.23 in989.8 mb - 0.00 in0.0 mm 0.00 in0.0 mm
07:40 PM 30.2°F-1.0°C 23.5°F-4.7°C 76% 3.5 mph SSE5.6 kmh SSE 3.5 mph5.6 kmh 29.23 in989.8 mb - 0.00 in0.0 mm 0.00 in0.0 mm
07:45 PM 30.2°F-1.0°C 23.5°F-4.7°C 76% 2.3 mph SSE3.7 kmh SSE 3.5 mph5.6 kmh 29.23 in989.8 mb - 0.00 in0.0 mm 0.00 in0.0 mm
07:50 PM 30.0°F-1.1°C 23.4°F-4.8°C 76% 2.3 mph SE3.7 kmh SE 3.5 mph5.6 kmh 29.23 in989.8 mb - 0.00 in0.0 mm 0.00 in0.0 mm
07:55 PM 29.8°F-1.2°C 23.2°F-4.9°C 76% 2.3 mph SE3.7 kmh SE 3.5 mph5.6 kmh 29.23 in989.8 mb - 0.00 in0.0 mm 0.00 in0.0 mm
08:00 PM 29.7°F-1.3°C 23.0°F-5.0°C 76% 3.5 mph ESE5.6 kmh ESE 4.6 mph7.4 kmh 29.22 in989.5 mb - 0.00 in0.0 mm 0.00 in0.0 mm
08:10 PM 29.3°F-1.5°C 22.7°F-5.2°C 76% 2.3 mph ESE3.7 kmh ESE 3.5 mph5.6 kmh 29.22 in989.5 mb - 0.00 in0.0 mm 0.00 in0.0 mm
08:15 PM 29.1°F-1.6°C 22.5°F-5.3°C 76% 2.3 mph ESE3.7 kmh ESE 2.3 mph3.7 kmh 29.22 in989.5 mb - 0.00 in0.0 mm 0.00 in0.0 mm
08:20 PM 28.9°F-1.7°C 22.3°F-5.4°C 76% 2.3 mph ESE3.7 kmh ESE 3.5 mph5.6 kmh 29.22 in989.5 mb - 0.00 in0.0 mm 0.00 in0.0 mm
08:25 PM 28.8°F-1.8°C 22.1°F-5.5°C 76% Calm Calm 1.2 mph1.9 kmh 29.22 in989.5 mb - 0.00 in0.0 mm 0.00 in0.0 mm
08:30 PM 28.6°F-1.9°C 22.0°F-5.6°C 76% 2.3 mph ESE3.7 kmh ESE 2.3 mph3.7 kmh 29.22 in989.5 mb - 0.00 in0.0 mm 0.00 in0.0 mm
08:35 PM 28.2°F-2.1°C 21.6°F-5.8°C 76% 2.3 mph ESE3.7 kmh ESE 2.3 mph3.7 kmh 29.22 in989.5 mb - 0.00 in0.0 mm 0.00 in0.0 mm
08:40 PM 28.0°F-2.2°C 22.1°F-5.5°C 78% 3.5 mph ESE5.6 kmh ESE 3.5 mph5.6 kmh 29.22 in989.5 mb - 0.00 in0.0 mm 0.00 in0.0 mm
08:45 PM 27.9°F-2.3°C 21.9°F-5.6°C 78% 3.5 mph ESE5.6 kmh ESE 3.5 mph5.6 kmh 29.21 in989.2 mb - 0.00 in0.0 mm 0.00 in0.0 mm
08:50 PM 27.7°F-2.4°C 21.7°F-5.7°C 78% 3.5 mph ESE5.6 kmh ESE 3.5 mph5.6 kmh 29.21 in989.2 mb - 0.00 in0.0 mm 0.00 in0.0 mm
08:55 PM 27.5°F-2.5°C 21.5°F-5.8°C 78% 3.5 mph ESE5.6 kmh ESE 3.5 mph5.6 kmh 29.21 in989.2 mb - 0.00 in0.0 mm 0.00 in0.0 mm
09:00 PM 27.7°F-2.4°C 21.7°F-5.7°C 78% 3.5 mph SE5.6 kmh SE 3.5 mph5.6 kmh 29.21 in989.2 mb - 0.00 in0.0 mm 0.00 in0.0 mm
09:10 PM 27.9°F-2.3°C 21.9°F-5.6°C 78% 3.5 mph SE5.6 kmh SE 4.6 mph7.4 kmh 29.21 in989.2 mb - 0.00 in0.0 mm 0.00 in0.0 mm
09:15 PM 27.9°F-2.3°C 21.9°F-5.6°C 78% 3.5 mph SE5.6 kmh SE 4.6 mph7.4 kmh 29.20 in988.8 mb - 0.00 in0.0 mm 0.00 in0.0 mm
09:20 PM 27.9°F-2.3°C 22.2°F-5.4°C 79% 4.6 mph SE7.4 kmh SE 5.8 mph9.3 kmh 29.20 in988.8 mb - 0.00 in0.0 mm 0.00 in0.0 mm
09:25 PM 28.2°F-2.1°C 22.5°F-5.3°C 79% 4.6 mph SSE7.4 kmh SSE 5.8 mph9.3 kmh 29.20 in988.8 mb - 0.00 in0.0 mm 0.00 in0.0 mm
09:30 PM 28.3°F-2.1°C 22.6°F-5.2°C 79% 4.6 mph SSE7.4 kmh SSE 5.8 mph9.3 kmh 29.20 in988.8 mb - 0.00 in0.0 mm 0.00 in0.0 mm
09:35 PM 28.4°F-2.0°C 22.7°F-5.2°C 79% 3.5 mph SSE5.6 kmh SSE 3.5 mph5.6 kmh 29.20 in988.8 mb - 0.00 in0.0 mm 0.00 in0.0 mm
09:40 PM 28.6°F-1.9°C 22.9°F-5.1°C 79% 4.6 mph SSE7.4 kmh SSE 5.8 mph9.3 kmh 29.20 in988.8 mb - 0.00 in0.0 mm 0.00 in0.0 mm
09:45 PM 28.9°F-1.7°C 23.2°F-4.9°C 79% 6.9 mph SE11.1 kmh SE 8.1 mph13.0 kmh 29.20 in988.8 mb - 0.00 in0.0 mm 0.00 in0.0 mm
09:50 PM 28.9°F-1.7°C 23.2°F-4.9°C 79% 4.6 mph SSE7.4 kmh SSE 5.8 mph9.3 kmh 29.20 in988.8 mb - 0.00 in0.0 mm 0.00 in0.0 mm
09:55 PM 29.1°F-1.6°C 23.4°F-4.8°C 79% 4.6 mph SSE7.4 kmh SSE 5.8 mph9.3 kmh 29.20 in988.8 mb - 0.00 in0.0 mm 0.00 in0.0 mm
10:00 PM 29.3°F-1.5°C 23.6°F-4.7°C 79% 5.8 mph S9.3 kmh S 6.9 mph11.1 kmh 29.20 in988.8 mb - 0.00 in0.0 mm 0.00 in0.0 mm
10:10 PM 29.5°F-1.4°C 23.8°F-4.6°C 79% 5.8 mph S9.3 kmh S 9.2 mph14.8 kmh 29.20 in988.8 mb - 0.00 in0.0 mm 0.00 in0.0 mm
10:15 PM 29.7°F-1.3°C 23.9°F-4.5°C 79% 5.8 mph S9.3 kmh S 5.8 mph9.3 kmh 29.20 in988.8 mb - 0.00 in0.0 mm 0.00 in0.0 mm
10:20 PM 30.0°F-1.1°C 24.3°F-4.3°C 79% 5.8 mph SE9.3 kmh SE 8.1 mph13.0 kmh 29.20 in988.8 mb - 0.00 in0.0 mm 0.00 in0.0 mm
10:25 PM 30.2°F-1.0°C 24.4°F-4.2°C 79% 6.9 mph SE11.1 kmh SE 8.1 mph13.0 kmh 29.20 in988.8 mb - 0.00 in0.0 mm 0.00 in0.0 mm
10:30 PM 30.2°F-1.0°C 24.2°F-4.3°C 78% 5.8 mph S9.3 kmh S 8.1 mph13.0 kmh 29.19 in988.5 mb - 0.00 in0.0 mm 0.00 in0.0 mm
10:35 PM 30.2°F-1.0°C 24.2°F-4.3°C 78% 6.9 mph SE11.1 kmh SE 6.9 mph11.1 kmh 29.19 in988.5 mb - 0.00 in0.0 mm 0.00 in0.0 mm
10:40 PM 30.2°F-1.0°C 24.2°F-4.3°C 78% 4.6 mph SE7.4 kmh SE 6.9 mph11.1 kmh 29.19 in988.5 mb - 0.00 in0.0 mm 0.00 in0.0 mm
10:45 PM 30.0°F-1.1°C 24.0°F-4.4°C 78% 4.6 mph SSE7.4 kmh SSE 4.6 mph7.4 kmh 29.19 in988.5 mb - 0.00 in0.0 mm 0.00 in0.0 mm
10:50 PM 30.0°F-1.1°C 24.0°F-4.4°C 78% 4.6 mph SE7.4 kmh SE 4.6 mph7.4 kmh 29.19 in988.5 mb - 0.00 in0.0 mm 0.00 in0.0 mm
10:55 PM 30.0°F-1.1°C 24.0°F-4.4°C 78% 5.8 mph SE9.3 kmh SE 5.8 mph9.3 kmh 29.19 in988.5 mb - 0.00 in0.0 mm 0.00 in0.0 mm
11:00 PM 30.0°F-1.1°C 24.0°F-4.4°C 78% 5.8 mph SSE9.3 kmh SSE 6.9 mph11.1 kmh 29.18 in988.1 mb - 0.00 in0.0 mm 0.00 in0.0 mm
11:10 PM 30.2°F-1.0°C 24.2°F-4.3°C 78% 5.8 mph SE9.3 kmh SE 6.9 mph11.1 kmh 29.18 in988.1 mb - 0.00 in0.0 mm 0.00 in0.0 mm
11:15 PM 30.4°F-0.9°C 24.3°F-4.3°C 78% 5.8 mph SE9.3 kmh SE 6.9 mph11.1 kmh 29.18 in988.1 mb - 0.00 in0.0 mm 0.00 in0.0 mm
11:20 PM 30.4°F-0.9°C 24.3°F-4.3°C 78% 4.6 mph SE7.4 kmh SE 4.6 mph7.4 kmh 29.18 in988.1 mb - 0.00 in0.0 mm 0.00 in0.0 mm
11:25 PM 30.6°F-0.8°C 24.5°F-4.2°C 78% 5.8 mph SSE9.3 kmh SSE 6.9 mph11.1 kmh 29.18 in988.1 mb - 0.00 in0.0 mm 0.00 in0.0 mm
11:30 PM 30.5°F-0.8°C 24.4°F-4.2°C 78% 5.8 mph ESE9.3 kmh ESE 6.9 mph11.1 kmh 29.18 in988.1 mb - 0.00 in0.0 mm 0.00 in0.0 mm
11:35 PM 30.4°F-0.9°C 24.3°F-4.3°C 78% 5.8 mph SE9.3 kmh SE 5.8 mph9.3 kmh 29.18 in988.1 mb - 0.00 in0.0 mm 0.00 in0.0 mm
11:40 PM 30.2°F-1.0°C 24.2°F-4.3°C 78% 4.6 mph SE7.4 kmh SE 5.8 mph9.3 kmh 29.18 in988.1 mb - 0.00 in0.0 mm 0.00 in0.0 mm
11:45 PM 30.2°F-1.0°C 24.2°F-4.3°C 78% 5.8 mph SSE9.3 kmh SSE 6.9 mph11.1 kmh 29.18 in988.1 mb - 0.00 in0.0 mm 0.00 in0.0 mm
11:50 PM 30.2°F-1.0°C 24.2°F-4.3°C 78% 4.6 mph SSE7.4 kmh SSE 3.5 mph5.6 kmh 29.18 in988.1 mb - 0.00 in0.0 mm 0.00 in0.0 mm
11:55 PM 30.2°F-1.0°C 24.2°F-4.3°C 78% 3.5 mph SE5.6 kmh SE 3.5 mph5.6 kmh 29.18 in988.1 mb - 0.00 in0.0 mm 0.00 in0.0 mm